createdAt,value
2022-09-07T00:03:14.025Z,10.70
2022-09-07T00:07:16.314Z,10.68
2022-09-07T00:11:19.742Z,10.98
2022-09-07T00:15:21.946Z,10.90
2022-09-07T00:19:23.867Z,9.77
2022-09-07T00:23:27.579Z,10.65
2022-09-07T00:27:29.743Z,7.85
2022-09-07T00:31:32.420Z,8.25
2022-09-07T00:35:40.110Z,8.25
2022-09-07T00:39:42.459Z,6.90
2022-09-07T00:43:56.845Z,6.75
2022-09-07T00:48:07.712Z,6.95
2022-09-07T00:52:12.484Z,8.05
2022-09-07T00:56:14.710Z,7.72
2022-09-07T01:00:17.217Z,8.38
2022-09-07T01:04:20.382Z,8.02
2022-09-07T01:08:25.737Z,7.53
2022-09-07T01:12:27.964Z,7.78
2022-09-07T01:17:08.259Z,7.82
2022-09-07T01:21:19.755Z,8.20
2022-09-07T01:25:23.478Z,7.53
2022-09-07T01:29:47.834Z,7.75
2022-09-07T01:33:55.422Z,7.68
2022-09-07T01:38:09.943Z,8.00
2022-09-07T01:42:15.018Z,8.15
2022-09-07T01:46:27.083Z,8.32
2022-09-07T01:50:38.350Z,9.70
2022-09-07T01:55:03.336Z,7.68
2022-09-07T01:59:18.803Z,8.23
2022-09-07T02:03:29.974Z,7.43
2022-09-07T02:07:56.505Z,7.88
2022-09-07T02:12:04.005Z,8.27
2022-09-07T02:16:36.636Z,7.43
2022-09-07T02:20:42.874Z,7.22
2022-09-07T02:24:50.902Z,8.18
2022-09-07T02:28:53.383Z,7.43
2022-09-07T02:32:56.477Z,8.13
2022-09-07T02:37:02.930Z,7.03
2022-09-07T02:41:07.414Z,7.88
2022-09-07T02:45:13.347Z,7.30
2022-09-07T02:49:15.349Z,6.78
2022-09-07T02:53:39.837Z,7.32
2022-09-07T02:58:00.546Z,8.85
2022-09-07T03:02:05.814Z,6.30
2022-09-07T03:06:21.418Z,6.90
2022-09-07T03:10:24.880Z,6.97
2022-09-07T03:14:27.096Z,6.97
2022-09-07T03:18:29.851Z,6.93
2022-09-07T03:22:34.164Z,6.35
2022-09-07T03:26:43.364Z,8.02
2022-09-07T03:30:49.450Z,6.53
2022-09-07T03:34:52.363Z,7.28
2022-09-07T03:38:55.330Z,6.40
2022-09-07T03:42:57.653Z,5.80
2022-09-07T03:46:59.956Z,7.03
2022-09-07T03:51:08.426Z,6.97
2022-09-07T03:55:10.461Z,6.00
2022-09-07T03:59:12.819Z,6.53
2022-09-07T04:03:15.060Z,6.53
2022-09-07T04:07:17.375Z,6.75
2022-09-07T04:11:20.028Z,7.10
2022-09-07T04:15:22.458Z,7.07
2022-09-07T04:19:24.694Z,6.38
2022-09-07T04:23:27.108Z,6.10
2022-09-07T04:27:29.221Z,7.05
2022-09-07T04:31:34.431Z,7.00
2022-09-07T04:35:42.077Z,6.85
2022-09-07T04:39:44.407Z,7.18
2022-09-07T04:43:47.698Z,7.95
2022-09-07T04:47:50.155Z,6.78
2022-09-07T04:51:55.392Z,9.05
2022-09-07T04:56:00.582Z,7.82
2022-09-07T05:00:04.047Z,9.02
2022-09-07T05:04:06.297Z,6.95
2022-09-07T05:08:08.269Z,7.80
2022-09-07T05:12:10.995Z,9.35
2022-09-07T05:16:24.260Z,8.18
2022-09-07T05:20:26.767Z,7.45
2022-09-07T05:24:28.917Z,7.18
2022-09-07T05:28:31.778Z,6.20
2022-09-07T05:32:34.439Z,7.00
2022-09-07T05:36:37.143Z,6.82
2022-09-07T05:40:40.786Z,6.80
2022-09-07T05:44:43.951Z,6.15
2022-09-07T05:48:47.084Z,6.60
2022-09-07T05:52:49.476Z,6.90
2022-09-07T05:56:51.444Z,6.07
2022-09-07T06:00:57.607Z,6.57
2022-09-07T06:04:59.601Z,5.88
2022-09-07T06:09:01.878Z,6.97
2022-09-07T06:13:04.801Z,6.43
2022-09-07T06:17:07.034Z,5.13
2022-09-07T06:21:30.579Z,5.82
2022-09-07T06:25:33.508Z,5.38
2022-09-07T06:29:35.817Z,4.40
2022-09-07T06:33:37.997Z,5.30
2022-09-07T06:37:40.765Z,5.18
2022-09-07T06:41:58.880Z,3.58
2022-09-07T06:50:28.450Z,3.72
2022-09-07T06:58:55.408Z,4.00
2022-09-07T07:02:57.452Z,2.53
2022-09-07T07:06:59.755Z,2.92
2022-09-07T07:11:10.423Z,2.92
2022-09-07T07:15:12.629Z,2.22
2022-09-07T07:19:14.749Z,3.35
2022-09-07T07:23:17.072Z,2.13
2022-09-07T07:27:19.107Z,2.10
2022-09-07T07:31:26.385Z,2.30
2022-09-07T07:35:28.338Z,1.70
2022-09-07T07:43:57.336Z,1.35
2022-09-07T07:47:59.543Z,1.20
2022-09-07T07:56:24.659Z,1.10
2022-09-07T08:00:43.710Z,0.93
2022-09-07T08:04:49.460Z,0.85
2022-09-07T08:08:51.555Z,1.10
2022-09-07T08:12:53.721Z,0.93
2022-09-07T08:16:55.634Z,0.68
2022-09-07T08:21:05.847Z,0.85
2022-09-07T08:25:08.810Z,0.68
2022-09-07T08:29:11.046Z,1.00
2022-09-07T08:33:13.183Z,0.55
2022-09-07T08:37:15.395Z,1.00
2022-09-07T08:41:34.356Z,0.93
2022-09-07T08:45:45.595Z,0.65
2022-09-07T08:50:03.174Z,1.15
2022-09-07T08:54:06.376Z,1.17
2022-09-07T08:58:32.590Z,1.25
2022-09-07T09:02:44.017Z,1.13
2022-09-07T09:07:03.393Z,1.27
2022-09-07T09:11:17.433Z,1.15
2022-09-07T09:15:32.342Z,1.10
2022-09-07T09:19:41.747Z,1.00
2022-09-07T09:23:46.565Z,1.20
2022-09-07T09:27:49.835Z,0.65
2022-09-07T09:31:53.676Z,1.02
2022-09-07T09:36:00.832Z,0.73
2022-09-07T09:40:04.562Z,1.00
2022-09-07T09:44:16.398Z,0.98
2022-09-07T09:48:24.027Z,1.83
2022-09-07T09:52:45.045Z,1.10
2022-09-07T09:56:50.085Z,1.10
2022-09-07T10:05:24.730Z,1.00
2022-09-07T10:09:38.118Z,1.15
2022-09-07T10:13:56.232Z,1.08
2022-09-07T10:17:59.710Z,1.23
2022-09-07T10:22:18.791Z,1.85
2022-09-07T10:26:28.658Z,1.73
2022-09-07T10:30:41.190Z,1.50
2022-09-07T10:34:49.070Z,1.50
2022-09-07T10:39:01.467Z,1.38
2022-09-07T10:43:22.348Z,0.93
2022-09-07T10:47:30.752Z,0.90
2022-09-07T10:51:56.358Z,1.20
2022-09-07T10:56:26.499Z,0.70
2022-09-07T11:00:39.280Z,1.00
2022-09-07T11:04:49.554Z,1.33
2022-09-07T11:09:21.074Z,1.20
2022-09-07T11:13:30.219Z,0.68
2022-09-07T11:17:55.248Z,0.85
2022-09-07T11:22:16.198Z,0.90
2022-09-07T11:26:39.607Z,1.33
2022-09-07T11:31:01.011Z,1.55
2022-09-07T11:35:25.942Z,1.05
2022-09-07T11:39:55.302Z,1.55
2022-09-07T11:44:28.855Z,0.95
2022-09-07T11:48:42.205Z,0.80
2022-09-07T11:53:14.933Z,1.00
2022-09-07T11:57:38.298Z,1.08
2022-09-07T12:02:02.170Z,1.20
2022-09-07T12:06:15.342Z,0.80
2022-09-07T12:10:39.917Z,0.90
2022-09-07T12:15:02.722Z,1.08
2022-09-07T12:19:23.729Z,0.80
2022-09-07T12:23:29.847Z,1.05
2022-09-07T12:27:31.984Z,1.17
2022-09-07T12:36:26.382Z,1.00
2022-09-07T12:40:33.798Z,1.10
2022-09-07T12:44:37.739Z,1.20
2022-09-07T12:49:10.768Z,1.20
2022-09-07T12:53:13.004Z,0.82
2022-09-07T12:57:35.956Z,1.08
2022-09-07T13:01:50.442Z,1.02
2022-09-07T13:10:49.463Z,1.20
2022-09-07T13:14:55.726Z,1.00
2022-09-07T13:18:59.527Z,0.90
2022-09-07T13:23:12.282Z,1.02
2022-09-07T13:27:27.582Z,1.38
2022-09-07T13:31:52.926Z,1.10
2022-09-07T13:36:00.370Z,1.40
2022-09-07T13:40:04.221Z,1.08
2022-09-07T13:44:06.630Z,1.02
2022-09-07T13:48:20.434Z,1.20
2022-09-07T13:52:33.677Z,0.70
2022-09-07T13:56:58.435Z,1.00
2022-09-07T14:01:18.483Z,1.00
2022-09-07T14:05:22.498Z,1.20
2022-09-07T14:09:27.263Z,1.23
2022-09-07T14:13:29.497Z,0.80
2022-09-07T14:17:31.591Z,1.40
2022-09-07T14:21:33.740Z,1.20
2022-09-07T14:26:16.037Z,1.10
2022-09-07T14:30:20.325Z,1.10
2022-09-07T14:34:26.573Z,1.10
2022-09-07T14:42:55.905Z,1.27
2022-09-07T14:47:02.766Z,0.95
2022-09-07T14:51:26.941Z,1.30
2022-09-07T14:55:37.131Z,0.80
2022-09-07T14:59:44.422Z,1.42
2022-09-07T15:03:46.531Z,1.10
2022-09-07T15:07:51.834Z,1.10
2022-09-07T15:12:04.220Z,1.10
2022-09-07T15:16:18.991Z,1.80
2022-09-07T15:20:44.399Z,1.33
2022-09-07T15:24:50.337Z,1.10
2022-09-07T15:29:18.421Z,1.13
2022-09-07T15:33:14.438Z,1.30
2022-09-07T15:41:38.600Z,1.48
2022-09-07T15:45:40.863Z,0.93
2022-09-07T15:49:50.342Z,1.30
2022-09-07T15:54:13.398Z,1.30
2022-09-07T15:58:15.750Z,1.30
2022-09-07T16:06:41.290Z,1.02
2022-09-07T16:10:43.432Z,1.50
2022-09-07T16:14:45.481Z,1.63
2022-09-07T16:18:48.122Z,1.80
2022-09-07T16:27:13.039Z,1.30
2022-09-07T16:31:18.870Z,1.20
2022-09-07T16:35:21.077Z,1.00
2022-09-07T16:39:23.383Z,1.02
2022-09-07T16:43:25.927Z,1.30
2022-09-07T16:47:27.870Z,1.23
2022-09-07T16:51:30.042Z,1.00
2022-09-07T16:55:32.223Z,1.83
2022-09-07T16:59:34.899Z,1.30
2022-09-07T17:03:38.419Z,1.10
2022-09-07T17:07:40.590Z,1.50
2022-09-07T17:11:42.607Z,1.90
2022-09-07T17:15:44.755Z,2.00
2022-09-07T17:19:46.707Z,2.25
2022-09-07T17:23:54.853Z,3.15
2022-09-07T17:27:57.792Z,3.20
2022-09-07T17:36:25.956Z,4.13
2022-09-07T17:40:28.557Z,4.70
2022-09-07T17:44:37.670Z,4.78
2022-09-07T17:48:40.665Z,3.25
2022-09-07T17:52:45.947Z,3.53
2022-09-07T17:56:48.635Z,3.33
2022-09-07T18:00:51.102Z,4.00
2022-09-07T18:04:53.471Z,3.67
2022-09-07T18:08:55.561Z,3.90
2022-09-07T18:12:57.721Z,2.95
2022-09-07T18:17:00.432Z,3.50
2022-09-07T18:21:03.379Z,2.83
2022-09-07T18:25:10.096Z,2.72
2022-09-07T18:29:27.314Z,4.07
2022-09-07T18:33:30.490Z,3.22
2022-09-07T18:37:32.725Z,2.75
2022-09-07T18:41:34.980Z,2.97
2022-09-07T18:45:37.226Z,3.30
2022-09-07T18:49:39.338Z,3.13
2022-09-07T18:53:41.818Z,3.45
2022-09-07T18:57:43.973Z,4.57
2022-09-07T19:01:46.247Z,3.95
2022-09-07T19:05:50.474Z,4.50
2022-09-07T19:09:53.084Z,4.78
2022-09-07T19:13:57.647Z,5.38
2022-09-07T19:17:59.963Z,5.78
2022-09-07T19:22:03.404Z,4.68
2022-09-07T19:26:11.176Z,6.35
2022-09-07T19:30:13.967Z,6.60
2022-09-07T19:34:17.056Z,6.55
2022-09-07T19:38:23.011Z,6.18
2022-09-07T19:42:28.042Z,6.68
2022-09-07T19:46:30.182Z,6.80
2022-09-07T19:50:32.573Z,5.93
2022-09-07T19:54:36.483Z,6.75
2022-09-07T19:58:44.437Z,6.53
2022-09-07T20:02:49.107Z,6.38
2022-09-07T20:06:51.884Z,5.88
2022-09-07T20:11:00.262Z,6.63
2022-09-07T20:15:02.431Z,5.88
2022-09-07T20:19:07.681Z,6.10
2022-09-07T20:23:10.002Z,5.70
2022-09-07T20:27:11.881Z,5.50
2022-09-07T20:31:16.201Z,5.68
2022-09-07T20:35:18.488Z,5.60
2022-09-07T20:39:20.849Z,5.40
2022-09-07T20:43:23.106Z,6.03
2022-09-07T20:47:25.503Z,5.13
2022-09-07T20:51:28.027Z,5.65
2022-09-07T20:55:30.496Z,5.60
2022-09-07T20:59:32.428Z,5.55
2022-09-07T21:03:34.668Z,4.70
2022-09-07T21:07:40.305Z,5.70
2022-09-07T21:11:46.108Z,5.18
2022-09-07T21:15:51.028Z,4.63
2022-09-07T21:19:53.308Z,5.43
2022-09-07T21:23:57.971Z,5.40
2022-09-07T21:28:00.290Z,5.18
2022-09-07T21:32:03.388Z,5.03
2022-09-07T21:36:06.321Z,4.88
2022-09-07T21:40:08.920Z,5.38
2022-09-07T21:44:13.665Z,5.15
2022-09-07T21:48:15.606Z,4.78
2022-09-07T21:52:18.286Z,4.65
2022-09-07T21:56:21.449Z,4.70
2022-09-07T22:00:23.618Z,5.40
2022-09-07T22:04:25.739Z,5.03
2022-09-07T22:08:33.088Z,5.22
2022-09-07T22:12:35.027Z,4.60
2022-09-07T22:16:37.237Z,4.85
2022-09-07T22:20:40.278Z,4.78
2022-09-07T22:24:42.484Z,4.40
2022-09-07T22:28:44.526Z,5.15
2022-09-07T22:32:48.123Z,4.72
2022-09-07T22:36:50.328Z,4.32
2022-09-07T22:40:52.460Z,4.75
2022-09-07T22:44:55.259Z,5.10
2022-09-07T22:48:59.313Z,5.05
2022-09-07T22:53:01.275Z,5.22
2022-09-07T22:57:03.596Z,4.70
2022-09-07T23:01:06.624Z,5.25
2022-09-07T23:05:09.624Z,5.00
2022-09-07T23:09:15.070Z,4.85
2022-09-07T23:13:17.704Z,5.07
2022-09-07T23:17:19.666Z,5.57
2022-09-07T23:21:22.079Z,6.68
2022-09-07T23:25:24.068Z,5.72
2022-09-07T23:29:26.351Z,6.63
2022-09-07T23:33:28.651Z,6.15
2022-09-07T23:37:31.899Z,5.45
2022-09-07T23:41:34.050Z,5.72
2022-09-07T23:45:37.029Z,6.75
2022-09-07T23:49:39.196Z,6.13
2022-09-07T23:53:41.561Z,5.82
2022-09-07T23:57:43.736Z,5.93
